Time;durP1;ratioP1;P1;durP2;ratioP2;P2;SDS_P1;SDS_P2;PMS_P1;PMS_P2;Temp;Humidity;BMP_temperature;BMP_pressure;BME280_temperature;BME280_humidity;BME280_pressure;Samples;Min_cycle;Max_cycle;Signal;HPM_P1;HPM_P2
2022/11/21 00:01:51;;;;;;;20.45;11.32;;;-0.60;99.90;;;-0.56;95.57;100031.25;5022968;28;20655;-74
2022/11/21 00:04:19;;;;;;;16.33;11.07;;;-0.40;99.90;;;-0.52;94.46;100013.19;5038970;28;20209;-74
2022/11/21 00:06:50;;;;;;;17.80;10.38;;;-0.40;99.90;;;-0.47;93.33;100013.56;5042647;28;20198;-74
2022/11/21 00:09:18;;;;;;;24.42;13.60;;;-0.30;99.90;;;-0.46;94.02;100012.56;5045325;28;20197;-75
2022/11/21 00:11:51;;;;;;;19.25;13.32;;;-0.30;99.90;;;-0.32;92.35;100008.53;5033000;28;20198;-76
2022/11/21 00:14:47;;;;;;;13.35;10.60;;;-0.20;99.90;;;-0.45;92.72;100000.97;5033069;28;20271;-75
2022/11/21 00:17:15;;;;;;;18.42;11.60;;;-0.30;99.90;;;-0.39;93.24;99995.03;5042104;28;20238;-74
2022/11/21 00:19:44;;;;;;;17.00;9.60;;;-0.30;99.90;;;-0.27;91.69;99998.28;5040291;28;20190;-73
2022/11/21 00:22:13;;;;;;;20.27;11.35;;;-0.20;99.90;;;-0.23;90.76;99994.31;5025540;28;20197;-73
2022/11/21 00:24:41;;;;;;;22.35;12.65;;;-0.20;99.90;;;-0.26;91.02;99989.31;5035722;28;20678;-74
2022/11/21 00:27:11;;;;;;;22.92;12.63;;;-0.20;99.90;;;-0.22;90.97;99991.50;5043190;28;20189;-75
2022/11/21 00:29:40;;;;;;;24.02;12.45;;;-0.10;99.90;;;-0.21;90.88;99987.03;5030091;28;20250;-74
2022/11/21 00:32:08;;;;;;;15.77;11.85;;;-0.10;99.90;;;-0.43;90.75;99978.53;5040917;28;20203;-74
2022/11/21 00:34:37;;;;;;;19.05;11.05;;;-0.20;99.90;;;-0.31;91.54;99980.97;5040866;28;20189;-74
2022/11/21 00:37:06;;;;;;;20.52;13.13;;;-0.20;99.90;;;-0.40;90.98;99976.56;5048937;28;20201;-75
2022/11/21 00:39:34;;;;;;;14.40;9.60;;;-0.30;99.90;;;-0.39;91.24;99968.47;5035099;28;20591;-75
2022/11/21 00:42:03;;;;;;;21.60;11.68;;;-0.30;99.90;;;-0.32;90.03;99974.81;5032393;28;20193;-74
2022/11/21 00:44:33;;;;;;;19.85;11.65;;;-0.20;99.90;;;-0.29;89.67;99966.50;5037432;28;20209;-73
2022/11/21 00:47:01;;;;;;;13.98;10.32;;;-0.20;99.90;;;-0.31;89.34;99967.66;5047728;28;20665;-74
2022/11/21 00:49:30;;;;;;;20.92;12.90;;;-0.20;99.90;;;-0.31;90.11;99965.00;5054355;28;20193;-74
2022/11/21 00:51:58;;;;;;;16.73;10.75;;;-0.20;99.90;;;-0.29;89.98;99963.03;5061191;28;20189;-74
2022/11/21 00:54:27;;;;;;;20.08;12.07;;;-0.20;99.90;;;-0.24;90.83;99966.88;5041424;28;20209;-73
2022/11/21 00:56:56;;;;;;;19.42;9.68;;;-0.10;99.90;;;-0.12;89.73;99962.16;5046394;28;20193;-73
2022/11/21 00:59:25;;;;;;;25.20;11.55;;;0.00;99.90;;;-0.20;89.55;99954.97;5045949;28;20248;-75
2022/11/21 01:01:54;;;;;;;18.92;12.82;;;-0.10;99.90;;;-0.31;89.91;99954.38;5036718;28;20657;-75
2022/11/21 01:04:24;;;;;;;23.15;11.90;;;-0.20;99.90;;;-0.07;89.93;99944.75;5501396;22;20645;-75
2022/11/21 01:06:55;;;;;;;17.48;12.07;;;-0.10;99.90;;;-0.01;88.03;99945.94;5063932;28;20197;-75
2022/11/21 01:09:27;;;;;;;16.05;10.60;;;0.10;99.90;;;-0.19;88.47;99950.47;5055680;28;20202;-73
2022/11/21 01:12:00;;;;;;;18.63;11.00;;;0.00;99.90;;;0.02;88.64;99944.78;5056453;28;20207;-75
2022/11/21 01:14:31;;;;;;;18.60;11.27;;;0.10;99.90;;;-0.06;88.18;99942.91;5040705;28;20624;-74
2022/11/21 01:17:02;;;;;;;15.30;10.60;;;0.10;99.90;;;-0.05;88.30;99941.94;5035700;28;20200;-75
2022/11/21 01:19:32;;;;;;;22.65;15.80;;;0.10;99.90;;;-0.04;89.10;99949.72;5036019;28;20212;-75
2022/11/21 01:22:01;;;;;;;20.48;11.05;;;0.00;99.90;;;-0.06;89.27;99942.91;5036342;28;20673;-75
2022/11/21 01:24:30;;;;;;;17.98;12.27;;;0.00;99.90;;;-0.09;88.37;99944.06;5038185;28;20231;-75
2022/11/21 01:26:59;;;;;;;20.55;11.77;;;0.10;99.90;;;0.07;88.40;99938.00;5052639;28;20204;-77
2022/11/21 01:29:28;;;;;;;19.05;11.35;;;0.10;99.90;;;-0.08;89.29;99944.88;5054336;28;20186;-74
2022/11/21 01:31:56;;;;;;;25.40;12.82;;;0.00;99.90;;;-0.20;89.16;99935.53;5054619;28;20217;-75
2022/11/21 01:34:26;;;;;;;19.50;10.10;;;-0.10;99.90;;;-0.14;90.28;99930.38;5053478;28;20218;-75
2022/11/21 01:36:55;;;;;;;17.90;11.07;;;-0.10;99.90;;;-0.15;91.12;99935.88;5053230;28;20200;-75
2022/11/21 01:39:24;;;;;;;20.83;11.23;;;-0.10;99.90;;;-0.07;89.65;99930.59;5045900;28;20194;-74
2022/11/21 01:41:53;;;;;;;22.27;13.55;;;-0.10;99.90;;;-0.18;89.58;99929.03;5043985;28;20196;-73
2022/11/21 01:44:24;;;;;;;20.48;11.68;;;-0.10;99.90;;;-0.18;90.07;99922.88;5041597;28;20236;-74
2022/11/21 01:46:54;;;;;;;15.93;9.60;;;-0.10;99.90;;;-0.19;90.25;99921.22;5040177;28;20177;-74
2022/11/21 01:49:28;;;;;;;19.83;13.45;;;-0.10;99.90;;;-0.24;90.42;99923.53;5040812;28;20186;-75
2022/11/21 01:52:02;;;;;;;20.25;12.88;;;-0.10;99.90;;;-0.27;90.91;99924.66;5042961;28;20580;-75
2022/11/21 01:54:39;;;;;;;21.83;11.77;;;-0.20;99.90;;;-0.26;91.35;99923.69;5034836;28;20222;-74
2022/11/21 01:57:14;;;;;;;22.95;12.63;;;-0.20;99.90;;;-0.25;92.11;99921.88;5037603;28;20204;-75
2022/11/21 01:59:49;;;;;;;28.88;13.15;;;-0.20;99.90;;;-0.19;92.27;99931.84;5031261;28;20197;-75
2022/11/21 02:02:21;;;;;;;20.95;11.30;;;-0.10;99.90;;;-0.33;92.28;99913.81;5037347;28;20599;-75
2022/11/21 02:04:53;;;;;;;17.98;12.23;;;-0.20;99.90;;;-0.30;92.63;99913.53;5039033;28;20228;-75
2022/11/21 02:07:25;;;;;;;18.95;10.52;;;-0.20;99.90;;;0.00;91.33;99907.72;5042745;28;20201;-76
2022/11/21 02:09:59;;;;;;;21.88;11.82;;;-0.10;99.90;;;-0.06;90.17;99922.47;5044945;28;20237;-74
2022/11/21 02:12:35;;;;;;;19.42;11.13;;;0.00;99.90;;;-0.23;91.43;99920.69;5046317;28;20237;-76
2022/11/21 02:15:04;;;;;;;23.27;12.15;;;-0.10;99.90;;;-0.20;92.60;99916.91;5047490;28;20209;-74
2022/11/21 02:17:33;;;;;;;15.77;11.93;;;-0.10;99.90;;;-0.21;92.81;99924.06;5047281;28;20185;-74
2022/11/21 02:20:09;;;;;;;14.88;11.57;;;-0.10;99.90;;;-0.25;92.55;99919.19;5037680;28;20185;-74
2022/11/21 02:22:53;;;;;;;18.08;10.23;;;-0.10;99.90;;;-0.16;91.69;99918.25;5036108;28;20680;-74
2022/11/21 02:25:26;;;;;;;22.35;13.60;;;-0.10;99.90;;;-0.14;91.47;99918.91;5034764;28;20184;-74
2022/11/21 02:28:01;;;;;;;21.30;14.25;;;-0.10;99.90;;;-0.16;91.49;99920.91;5035114;28;20642;-74
2022/11/21 02:30:35;;;;;;;23.77;14.00;;;-0.10;99.90;;;-0.15;91.93;99911.94;5034656;28;20180;-74
2022/11/21 02:33:05;;;;;;;19.95;13.57;;;-0.10;99.90;;;-0.21;92.87;99909.91;5023506;28;20214;-74
2022/11/21 02:35:34;;;;;;;17.73;11.07;;;-0.10;99.90;;;-0.19;93.37;99905.25;5034428;28;20665;-74
2022/11/21 02:38:16;;;;;;;21.00;11.85;;;-0.10;99.90;;;-0.11;92.67;99902.66;5034019;28;20217;-75
2022/11/21 02:40:58;;;;;;;19.95;13.30;;;-0.10;99.90;;;0.08;90.92;99899.78;5034664;28;20224;-75
2022/11/21 02:43:33;;;;;;;19.17;10.80;;;0.00;99.90;;;-0.01;90.98;99898.06;5036412;28;20762;-75
2022/11/21 02:46:02;;;;;;;18.98;13.00;;;0.10;99.90;;;-0.03;91.47;99890.25;5033177;28;20207;-75
2022/11/21 02:48:31;;;;;;;23.65;12.40;;;0.00;99.90;;;-0.02;91.53;99885.75;5032374;28;20311;-75
2022/11/21 02:51:00;;;;;;;24.40;13.50;;;0.00;99.90;;;-0.12;92.50;99883.22;5033828;28;20206;-73
2022/11/21 02:53:28;;;;;;;21.95;11.38;;;0.00;99.90;;;-0.14;93.38;99881.69;5033902;28;20604;-75
2022/11/21 02:55:59;;;;;;;22.88;13.70;;;0.00;99.90;;;-0.12;93.59;99879.72;5033898;28;20603;-74
2022/11/21 02:58:28;;;;;;;18.88;12.18;;;0.00;99.90;;;0.03;93.06;99880.78;5033934;28;20173;-74
2022/11/21 03:00:57;;;;;;;20.90;12.02;;;0.00;99.90;;;0.00;92.44;99881.13;5033887;28;20196;-75
2022/11/21 03:03:26;;;;;;;21.98;14.32;;;0.00;99.90;;;-0.05;92.31;99873.59;5033598;28;20228;-75
2022/11/21 03:05:56;;;;;;;20.98;15.48;;;0.00;99.90;;;-0.14;92.46;99871.06;5033596;28;20292;-75
2022/11/21 03:08:24;;;;;;;22.65;10.38;;;0.00;99.90;;;-0.02;92.80;99875.97;5033429;28;20189;-75
2022/11/21 03:10:53;;;;;;;20.48;12.95;;;0.00;99.90;;;-0.20;93.54;99866.38;5033378;28;20189;-75
2022/11/21 03:13:23;;;;;;;25.67;13.10;;;-0.10;99.90;;;-0.19;93.77;99868.03;5033355;28;20304;-74
2022/11/21 03:15:54;;;;;;;17.15;11.20;;;-0.10;99.90;;;-0.29;93.39;99872.66;5033402;28;20178;-75
2022/11/21 03:18:23;;;;;;;26.77;14.20;;;0.00;99.90;;;-0.33;93.59;99876.59;5033371;28;20240;-75
2022/11/21 03:20:51;;;;;;;20.38;14.45;;;-0.10;99.90;;;-0.29;93.52;99862.03;5033360;28;20209;-74
2022/11/21 03:23:20;;;;;;;21.45;13.07;;;-0.10;99.90;;;-0.33;93.23;99861.47;5033331;28;20205;-75
2022/11/21 03:25:49;;;;;;;18.02;13.60;;;-0.10;99.90;;;-0.46;93.63;99864.56;5032181;28;20205;-75
2022/11/21 03:28:18;;;;;;;21.17;12.48;;;-0.20;99.90;;;-0.41;93.72;99869.41;5033501;28;20630;-75
2022/11/21 03:30:48;;;;;;;24.48;13.85;;;-0.20;99.90;;;-0.50;94.35;99865.03;5033530;28;20185;-74
2022/11/21 03:33:17;;;;;;;21.33;13.25;;;-0.20;99.90;;;-0.53;94.71;99870.66;5032164;28;20224;-75
2022/11/21 03:35:47;;;;;;;26.73;13.90;;;-0.20;99.90;;;-0.54;94.93;99867.19;5033946;28;20208;-75
2022/11/21 03:38:16;;;;;;;20.25;13.88;;;-0.30;99.90;;;-0.47;94.68;99872.69;5033761;28;20190;-74
2022/11/21 03:40:45;;;;;;;19.58;11.38;;;-0.30;99.90;;;-0.67;94.83;99869.41;5033360;28;20243;-75
2022/11/21 03:43:14;;;;;;;19.83;11.70;;;-0.40;99.90;;;-0.63;94.52;99869.94;5032021;28;20221;-74
2022/11/21 03:45:47;;;;;;;18.25;12.13;;;-0.40;99.90;;;-0.71;94.69;99881.34;5033273;28;20583;-75
2022/11/21 03:48:16;;;;;;;23.02;12.68;;;-0.40;99.90;;;-0.88;95.78;99876.91;5033640;28;20297;-75
2022/11/21 03:50:46;;;;;;;19.15;11.93;;;-0.50;99.90;;;-0.94;96.13;99873.03;5029387;28;20195;-74
2022/11/21 03:53:15;;;;;;;21.98;10.90;;;-0.60;99.90;;;-0.93;97.05;99879.19;5014128;28;20237;-75
2022/11/21 03:55:44;;;;;;;22.55;12.93;;;-0.60;99.90;;;-0.99;97.65;99874.47;5034445;28;20193;-75
2022/11/21 03:58:13;;;;;;;27.45;13.93;;;-0.70;99.90;;;-0.96;98.50;99879.47;5046050;28;20190;-74
2022/11/21 04:00:42;;;;;;;21.80;13.93;;;-0.70;99.90;;;-0.95;98.24;99875.81;5053359;28;20248;-75
2022/11/21 04:03:12;;;;;;;20.15;12.45;;;-0.70;99.90;;;-0.88;98.83;99882.22;5066905;28;20209;-75
2022/11/21 04:05:41;;;;;;;21.75;10.90;;;-0.70;99.90;;;-0.89;99.18;99891.16;5051549;28;20649;-74
2022/11/21 04:08:10;;;;;;;23.67;12.73;;;-0.70;99.90;;;-0.70;98.34;99880.34;5045953;28;20224;-76
2022/11/21 04:10:38;;;;;;;23.10;11.90;;;-0.60;99.90;;;-0.64;97.00;99885.06;5046198;28;20239;-74
2022/11/21 04:13:07;;;;;;;27.25;14.15;;;-0.60;99.90;;;-0.63;97.46;99881.38;5045679;28;20304;-74
2022/11/21 04:15:36;;;;;;;23.05;11.18;;;-0.50;99.90;;;-0.56;96.23;99884.25;5042308;28;20186;-76
2022/11/21 04:18:05;;;;;;;22.83;12.63;;;-0.50;99.90;;;-0.53;96.01;99887.44;5038807;28;20182;-74
2022/11/21 04:20:35;;;;;;;24.35;13.90;;;-0.50;99.90;;;-0.52;95.96;99883.81;5037067;28;20636;-74
2022/11/21 04:23:05;;;;;;;43.38;20.35;;;-0.40;99.90;;;-0.53;95.88;99886.59;5036337;28;20213;-74
2022/11/21 04:25:34;;;;;;;26.88;13.70;;;-0.40;99.90;;;-0.56;95.51;99890.41;5036318;28;20193;-74
2022/11/21 04:28:04;;;;;;;21.08;13.95;;;-0.40;99.90;;;-0.45;95.38;99892.81;5036016;28;20199;-74
2022/11/21 04:30:34;;;;;;;32.90;14.57;;;-0.30;99.90;;;-0.54;95.72;99890.28;5035941;28;20280;-75
2022/11/21 04:33:03;;;;;;;33.20;16.83;;;-0.30;99.90;;;-0.49;95.11;99886.16;5034667;28;20217;-74
2022/11/21 04:35:32;;;;;;;29.80;18.30;;;-0.30;99.90;;;-0.41;94.58;99893.34;5036330;28;20669;-75
2022/11/21 04:38:02;;;;;;;42.20;23.05;;;-0.30;99.90;;;-0.47;94.40;99892.13;5035953;28;20186;-74
2022/11/21 04:40:31;;;;;;;43.45;23.50;;;-0.30;99.90;;;-0.47;94.42;99897.44;5036053;28;20213;-74
2022/11/21 04:43:00;;;;;;;35.25;18.35;;;-0.20;99.90;;;-0.50;94.81;99892.47;5034758;28;20181;-74
2022/11/21 04:45:29;;;;;;;27.25;15.77;;;-0.30;99.90;;;-0.44;94.53;99891.81;5035639;28;20193;-75
2022/11/21 04:47:58;;;;;;;21.67;16.05;;;-0.30;99.90;;;-0.48;95.05;99890.47;5035584;28;20267;-74
2022/11/21 04:50:27;;;;;;;43.10;20.67;;;-0.30;99.90;;;-0.49;94.53;99888.81;5035627;28;20657;-74
2022/11/21 04:52:57;;;;;;;24.42;15.27;;;-0.30;99.90;;;-0.47;94.58;99897.44;5036019;28;20211;-76
2022/11/21 04:55:32;;;;;;;24.90;16.65;;;-0.30;99.90;;;-0.57;94.08;99899.38;5035876;28;20265;-75
2022/11/21 04:58:01;;;;;;;25.15;15.30;;;-0.30;99.90;;;-0.62;95.09;99893.69;5035584;28;20663;-75
2022/11/21 05:00:29;;;;;;;30.30;17.25;;;-0.40;99.90;;;-0.57;95.10;99886.09;5036452;28;20264;-73
2022/11/21 05:03:03;;;;;;;18.92;12.60;;;-0.40;99.90;;;-0.51;94.91;99893.44;5034587;28;20224;-74
2022/11/21 05:05:33;;;;;;;24.95;13.48;;;-0.30;99.90;;;-0.40;93.94;99899.50;5035640;28;20336;-74
2022/11/21 05:08:02;;;;;;;35.28;17.33;;;-0.30;99.90;;;-0.50;94.15;99891.63;5034769;28;20680;-74
2022/11/21 05:13:19;;;;;;;31.75;16.58;;;-0.30;99.90;;;-0.65;94.41;99891.34;5035386;28;20193;-75
2022/11/21 05:13:22;;;;;;;19.65;12.65;;;-0.40;99.90;;;-0.64;95.33;99890.38;5030361;28;20248;-74
2022/11/21 05:15:57;;;;;;;18.45;11.52;;;-0.50;99.90;;;-0.60;94.84;99899.69;5036064;28;20736;-75
2022/11/21 05:18:26;;;;;;;29.10;15.63;;;-0.40;99.90;;;-0.74;94.89;99886.97;5015669;28;20733;-74
2022/11/21 05:20:55;;;;;;;21.40;12.85;;;-0.50;99.90;;;-0.71;95.02;99894.63;5017361;28;20190;-74
2022/11/21 05:23:24;;;;;;;26.00;16.40;;;-0.50;99.90;;;-0.64;95.53;99906.31;5033684;28;20221;-73
2022/11/21 05:25:54;;;;;;;22.08;11.68;;;-0.50;99.90;;;-0.67;95.02;99906.59;5035235;28;20193;-75
2022/11/21 05:28:23;;;;;;;32.72;13.18;;;-0.50;99.90;;;-0.61;95.17;99908.66;5034902;28;20224;-73
2022/11/21 05:30:52;;;;;;;18.20;11.32;;;-0.50;99.90;;;-0.71;96.03;99912.38;5034409;28;20196;-74
2022/11/21 05:33:21;;;;;;;20.40;13.63;;;-0.50;99.90;;;-0.77;96.06;99908.50;5033767;28;20245;-74
2022/11/21 05:35:50;;;;;;;28.15;14.70;;;-0.50;99.90;;;-0.71;95.21;99915.03;5034576;28;20188;-75
2022/11/21 05:38:18;;;;;;;19.70;12.00;;;-0.50;99.90;;;-0.82;96.08;99910.78;5031776;28;20198;-74
2022/11/21 05:40:47;;;;;;;24.33;14.50;;;-0.60;99.90;;;-0.63;95.47;99913.28;5024931;28;20205;-75
2022/11/21 05:46:04;;;;;;;25.17;11.75;;;-0.40;99.90;;;-0.70;95.67;99901.59;5034810;28;20200;-75
2022/11/21 05:48:35;;;;;;;18.77;12.98;;;-0.40;99.90;;;-0.54;96.34;99906.22;5035049;28;20236;-74
2022/11/21 05:51:05;;;;;;;20.75;13.48;;;-0.40;99.90;;;-0.47;95.45;99899.28;5035113;28;20752;-74
2022/11/21 05:53:35;;;;;;;29.67;15.18;;;-0.40;99.90;;;-0.42;95.33;99894.31;5036211;28;20222;-74
2022/11/21 05:56:07;;;;;;;33.75;15.10;;;-0.30;99.90;;;-0.55;95.34;99894.75;5036533;28;20268;-75
2022/11/21 05:58:38;;;;;;;22.92;13.77;;;-0.40;99.90;;;-0.54;95.19;99896.44;5034358;28;20708;-76
2022/11/21 06:01:10;;;;;;;20.40;13.32;;;-0.40;99.90;;;-0.74;96.00;99899.41;5035354;28;20277;-75
2022/11/21 06:03:40;;;;;;;17.83;11.60;;;-0.50;99.90;;;-0.61;95.63;99900.69;5029496;28;20296;-74
2022/11/21 06:06:13;;;;;;;18.95;13.95;;;-0.40;99.90;;;-0.56;95.50;99906.38;5035419;28;20197;-74
2022/11/21 06:08:44;;;;;;;21.17;12.98;;;-0.40;99.90;;;-0.71;95.32;99899.94;5034800;28;20611;-74
2022/11/21 06:11:15;;;;;;;30.50;15.55;;;-0.50;99.90;;;-0.76;95.80;99912.84;5034781;28;20185;-75
2022/11/21 06:13:46;;;;;;;27.33;13.55;;;-0.50;99.90;;;-0.75;96.60;99905.72;5036286;28;20316;-72
2022/11/21 06:16:17;;;;;;;19.73;12.15;;;-0.50;99.90;;;-0.75;97.04;99901.22;5040064;28;20193;-74
2022/11/21 06:18:47;;;;;;;20.58;13.02;;;;;;;-0.67;96.81;99895.97;5038939;28;20197;-74
2022/11/21 06:21:20;;;;;;;28.65;14.40;;;;;;;-0.75;97.26;99909.19;5039060;28;20202;-75
2022/11/21 06:23:52;;;;;;;24.63;14.10;;;-0.60;99.90;;;-0.71;96.86;99909.72;5045063;28;20210;-74
2022/11/21 06:26:23;;;;;;;22.23;12.52;;;-0.50;99.90;;;-0.55;96.98;99894.75;5034027;28;20213;-76
2022/11/21 06:28:54;;;;;;;27.90;13.00;;;-0.40;99.90;;;-0.49;94.90;99909.25;5034486;28;20193;-75
2022/11/21 06:31:26;;;;;;;25.00;14.45;;;-0.40;99.90;;;-0.78;95.20;99904.22;5034123;28;20207;-75
2022/11/21 06:33:57;;;;;;;24.17;13.13;;;-0.50;99.90;;;-0.84;96.24;99901.31;5029763;28;20227;-75
2022/11/21 06:36:27;;;;;;;22.73;12.77;;;-0.60;99.90;;;-0.94;96.76;99899.59;5048791;28;20285;-75
2022/11/21 06:38:56;;;;;;;24.20;12.55;;;-0.70;99.90;;;-1.05;97.02;99898.97;5049798;28;20265;-74
2022/11/21 06:41:29;;;;;;;22.73;15.23;;;-0.70;99.90;;;-1.01;96.85;99910.94;5044365;28;20280;-74
2022/11/21 06:44:00;;;;;;;22.73;13.40;;;-0.70;99.90;;;-0.96;97.60;99906.84;5039321;28;20225;-74
2022/11/21 06:46:36;;;;;;;19.23;12.32;;;-0.70;99.90;;;-0.96;97.25;99917.47;5044670;28;20564;-75
2022/11/21 06:49:06;;;;;;;25.42;13.80;;;-0.70;99.90;;;-1.07;96.82;99908.94;5045859;28;20219;-75
2022/11/21 06:51:35;;;;;;;22.52;14.15;;;-0.80;99.90;;;-1.13;97.37;99912.19;5044034;28;20232;-75
2022/11/21 06:54:04;;;;;;;23.58;14.55;;;-0.80;99.90;;;-1.27;97.62;99916.19;5041367;28;20221;-74
2022/11/21 06:56:33;;;;;;;24.77;14.68;;;-0.90;99.90;;;-1.44;98.33;99917.00;5041555;28;20197;-74
2022/11/21 06:59:03;;;;;;;26.88;12.60;;;-1.00;99.90;;;-1.35;98.98;99922.22;5036245;28;20200;-75
2022/11/21 07:01:32;;;;;;;23.80;14.68;;;-1.00;99.90;;;-1.40;98.84;99924.50;5033413;28;20201;-74
2022/11/21 07:06:57;;;;;;;24.05;17.00;;;-1.10;99.90;;;-1.47;99.96;99936.72;5015842;28;20197;-73
2022/11/21 07:09:26;;;;;;;36.65;26.35;;;-1.10;99.90;;;-1.48;100.00;99937.69;5016502;28;20565;-74
2022/11/21 07:14:46;;;;;;;27.95;15.38;;;-1.30;99.90;;;-1.56;100.00;99945.56;5011959;28;20233;-73
2022/11/21 07:17:15;;;;;;;21.20;15.85;;;-1.30;99.90;;;-1.60;100.00;99944.19;5013883;28;20212;-73
2022/11/21 07:19:44;;;;;;;24.17;17.10;;;-1.30;99.90;;;-1.55;100.00;99946.41;5018507;28;20190;-73
2022/11/21 07:22:13;;;;;;;27.42;19.00;;;-1.30;99.90;;;-1.57;100.00;99953.66;5013500;28;20196;-73
2022/11/21 07:24:42;;;;;;;42.25;25.83;;;-1.30;99.90;;;-1.56;100.00;99958.81;5013683;28;20221;-73
2022/11/21 07:27:10;;;;;;;30.55;16.55;;;-1.30;99.90;;;-1.50;100.00;99960.06;5014805;28;20680;-72
2022/11/21 07:29:39;;;;;;;26.15;17.92;;;-1.30;99.90;;;-1.11;100.00;99957.97;5027381;28;20186;-74
2022/11/21 07:32:09;;;;;;;30.40;16.35;;;-1.10;99.90;;;-0.95;100.00;99961.66;5019462;28;20190;-73
2022/11/21 07:34:38;;;;;;;39.55;25.13;;;-0.90;99.90;;;-0.80;100.00;99958.47;5015031;28;20648;-74
2022/11/21 07:37:07;;;;;;;26.08;17.45;;;-0.80;99.90;;;-0.93;99.15;99958.84;5017706;28;20205;-74
2022/11/21 07:39:36;;;;;;;26.15;17.50;;;-0.80;99.90;;;-0.92;99.35;99960.53;5017339;28;20623;-75
2022/11/21 07:42:05;;;;;;;37.67;17.90;;;-0.80;99.90;;;-0.85;99.49;99958.06;5016718;28;20189;-74
2022/11/21 07:44:33;;;;;;;35.33;17.00;;;-0.70;99.90;;;-0.72;98.44;99966.50;5031583;28;20205;-73
2022/11/21 07:47:02;;;;;;;27.42;16.02;;;-0.60;99.90;;;-0.64;97.94;99969.25;5036851;28;20197;-74
2022/11/21 07:49:32;;;;;;;33.22;16.73;;;-0.50;99.90;;;-0.37;96.59;99965.63;5023771;28;20666;-73
2022/11/21 07:52:01;;;;;;;29.85;17.10;;;;;;;-0.29;95.86;99969.16;5029100;28;20619;-74
2022/11/21 07:54:30;;;;;;;32.65;17.55;;;;;;;-0.39;95.82;99978.25;5023817;28;20218;-73
2022/11/21 07:56:59;;;;;;;31.83;16.55;;;;;;;-0.45;96.56;99977.88;5026406;28;20671;-74
2022/11/21 07:59:28;;;;;;;30.77;18.15;;;;;;;-0.66;96.45;99976.50;5032884;28;20189;-74
2022/11/21 08:01:58;;;;;;;26.83;16.45;;;;;;;-0.46;96.92;99988.66;5037811;28;20192;-74
2022/11/21 08:04:28;;;;;;;34.22;17.20;;;-0.40;99.90;;;-0.58;96.72;99980.06;5035434;28;20209;-74
2022/11/21 08:06:58;;;;;;;29.48;15.98;;;-0.40;99.90;;;-0.32;97.23;99989.91;5038451;28;20299;-73
2022/11/21 08:09:29;;;;;;;27.83;18.77;;;-0.30;99.90;;;-0.30;96.29;99986.13;5033606;28;20213;-71
2022/11/21 08:11:58;;;;;;;28.15;14.40;;;-0.20;99.90;;;-0.48;96.33;99990.63;5036681;28;20206;-72
2022/11/21 08:14:26;;;;;;;25.60;15.45;;;-0.30;99.90;;;-0.43;95.49;99986.50;5014860;28;20242;-74
2022/11/21 08:16:55;;;;;;;31.98;16.23;;;-0.30;99.90;;;-0.40;96.36;99992.53;5047353;28;20189;-73
2022/11/21 08:19:24;;;;;;;30.67;15.80;;;-0.30;99.90;;;-0.18;95.41;99984.88;5036605;28;20244;-73
2022/11/21 08:21:53;;;;;;;34.97;14.60;;;-0.20;99.90;;;-0.40;94.71;99992.53;5001244;28;20194;-74
2022/11/21 08:24:24;;;;;;;47.08;17.77;;;-0.30;99.90;;;-0.61;94.39;99982.22;5011961;28;20224;-74
2022/11/21 08:26:53;;;;;;;31.83;14.65;;;-0.40;99.90;;;-0.85;95.07;99990.78;5032736;28;20194;-74
2022/11/21 08:29:22;;;;;;;20.73;14.10;;;-0.50;99.90;;;-0.75;96.59;99990.72;5015939;28;20194;-74
2022/11/21 08:31:51;;;;;;;35.25;18.25;;;-0.60;99.90;;;-0.94;95.84;99991.69;5025895;28;20190;-75
2022/11/21 08:34:19;;;;;;;24.10;15.65;;;-0.70;99.90;;;-0.89;96.13;99995.56;5032064;28;20194;-73
2022/11/21 08:36:48;;;;;;;24.08;13.75;;;-0.70;99.90;;;-1.02;96.35;100000.44;5024892;28;20589;-74
2022/11/21 08:39:17;;;;;;;27.83;15.25;;;-0.80;99.90;;;-0.88;96.90;100005.22;5016390;28;20525;-73
2022/11/21 08:42:05;;;;;;;30.25;18.15;;;-0.70;99.90;;;-0.79;96.72;100010.59;5029127;28;20213;-74
2022/11/21 08:44:35;;;;;;;30.73;15.40;;;-0.70;99.90;;;-0.58;96.06;100019.13;5034852;28;20217;-73
2022/11/21 08:47:05;;;;;;;31.52;14.00;;;-0.60;99.90;;;-0.55;95.59;100027.63;5029847;28;20200;-74
2022/11/21 08:49:34;;;;;;;28.25;16.40;;;-0.60;99.90;;;-0.72;95.16;100011.66;4998027;28;20202;-74
2022/11/21 08:52:03;;;;;;;33.03;14.70;;;-0.60;99.90;;;-0.87;95.80;100024.63;5006658;28;20198;-74
2022/11/21 08:54:32;;;;;;;47.50;20.30;;;-0.60;99.90;;;-0.80;96.85;100023.06;5022075;28;20232;-74
2022/11/21 08:57:02;;;;;;;29.38;16.08;;;-0.60;99.90;;;-1.12;97.35;100033.31;5022022;28;20673;-74
2022/11/21 08:59:31;;;;;;;29.10;13.80;;;-0.80;99.90;;;-1.21;97.50;100028.91;5022423;28;20204;-74
2022/11/21 09:02:00;;;;;;;30.50;15.63;;;-1.00;99.90;;;-1.00;96.87;100027.66;5009046;28;20205;-74
2022/11/21 09:04:29;;;;;;;31.33;18.40;;;-0.90;99.90;;;-1.32;97.69;100022.81;5015269;28;20264;-73
2022/11/21 09:06:58;;;;;;;32.72;13.57;;;-1.10;99.90;;;-1.55;99.01;100032.09;5012525;28;20194;-73
2022/11/21 09:09:27;;;;;;;33.33;13.55;;;-1.30;99.90;;;-1.47;100.00;100044.66;5022020;28;20198;-74
2022/11/21 09:11:56;;;;;;;26.45;14.90;;;-1.30;99.90;;;-1.56;99.96;100037.59;5021658;28;20198;-75
2022/11/21 09:20:00;;;;;;;27.92;15.00;;;-1.30;99.90;;;-1.25;100.00;100035.47;5010330;28;20274;-75
2022/11/21 09:22:29;;;;;;;28.92;14.90;;;-1.20;99.90;;;-0.96;98.53;100038.81;5018519;28;20190;-75
2022/11/21 09:24:58;;;;;;;30.05;12.43;;;-1.00;99.90;;;-1.04;96.87;100036.06;5027328;28;20215;-74
2022/11/21 09:27:27;;;;;;;27.48;13.70;;;-1.00;99.90;;;-1.00;96.66;100037.44;5029700;28;20196;-74
2022/11/21 09:29:57;;;;;;;29.02;15.65;;;-1.00;99.90;;;-0.78;95.54;100039.69;5014810;28;20202;-74
2022/11/21 09:32:26;;;;;;;20.55;12.45;;;-0.80;99.90;;;-0.84;94.81;100048.25;5014962;28;20194;-75
2022/11/21 09:34:55;;;;;;;24.85;13.60;;;-0.80;99.90;;;-0.77;93.93;100046.63;5017781;28;20222;-74
2022/11/21 09:37:24;;;;;;;16.42;10.10;;;-0.70;99.90;;;-0.84;93.58;100048.25;5015077;28;20190;-74
2022/11/21 09:39:52;;;;;;;12.77;10.43;;;-0.70;99.90;;;-0.97;93.54;100053.09;5015005;28;20563;-73
2022/11/21 09:42:53;;;;;;;12.80;8.05;;;-0.80;99.90;;;-1.15;93.16;100046.88;5030584;28;20190;-74
2022/11/21 09:45:29;;;;;;;21.40;12.20;;;-0.90;99.90;;;-1.27;94.74;100045.41;5009704;28;20290;-75
2022/11/21 09:47:58;;;;;;;26.90;11.50;;;-1.10;99.90;;;-1.22;94.27;100045.81;5034200;28;20189;-73
2022/11/21 09:50:32;;;;;;;21.55;10.73;;;-1.10;99.90;;;-0.99;94.26;100060.34;5017140;28;20190;-73
2022/11/21 09:53:06;;;;;;;15.48;10.15;;;-1.00;99.90;;;-0.93;94.41;100051.81;5014670;28;20193;-74
2022/11/21 09:55:44;;;;;;;21.98;11.35;;;-0.90;99.90;;;-0.84;94.00;100053.56;5020122;28;20217;-73
2022/11/21 09:58:28;;;;;;;19.02;9.95;;;-0.80;99.90;;;-0.71;91.65;100056.69;5014466;28;20217;-74
2022/11/21 10:00:59;;;;;;;28.17;9.85;;;-0.70;99.90;;;-1.06;92.15;100051.28;5028730;28;20189;-74
2022/11/21 10:03:36;;;;;;;16.60;9.43;;;-0.90;99.90;;;-1.12;92.79;100057.22;5028145;28;20198;-73
2022/11/21 10:06:25;;;;;;;18.67;10.48;;;-1.10;99.90;;;-1.28;93.74;100064.97;5017840;28;20224;-75
2022/11/21 10:09:05;;;;;;;29.05;11.30;;;-1.20;99.90;;;-0.88;93.58;100071.63;5027622;28;20633;-74
2022/11/21 10:14:56;;;;;;;20.13;14.27;;;-0.90;99.90;;;-0.90;93.82;100075.41;5028500;28;20217;-75
2022/11/21 10:17:39;;;;;;;14.50;8.48;;;-1.00;99.90;;;-0.78;93.76;100079.53;5006265;28;20213;-74
2022/11/21 10:20:31;;;;;;;23.25;9.88;;;-0.80;99.90;;;-0.67;92.98;100075.81;5010106;28;20198;-73
2022/11/21 10:23:44;;;;;;;22.35;10.85;;;-0.70;99.90;;;-0.66;91.93;100078.31;5014013;28;20206;-75
2022/11/21 10:26:23;;;;;;;17.58;9.52;;;-0.60;99.90;;;-0.66;91.65;100083.63;5000097;28;20234;-74
2022/11/21 10:28:59;;;;;;;10.23;6.90;;;-0.60;99.90;;;-0.74;92.10;100080.06;5008983;28;20193;-75
2022/11/21 10:31:35;;;;;;;17.65;8.45;;;-0.70;99.90;;;-0.76;90.70;100080.19;5017241;28;20192;-74
2022/11/21 10:34:14;;;;;;;10.45;6.03;;;-0.60;99.90;;;-0.76;90.27;100093.47;5014361;28;20201;-73
2022/11/21 10:36:50;;;;;;;13.32;6.93;;;-0.60;99.90;;;-0.71;90.19;100101.84;5018547;28;20228;-75
2022/11/21 10:39:29;;;;;;;12.43;5.70;;;-0.60;99.90;;;-0.98;90.22;100110.66;5026968;28;20200;-74
2022/11/21 10:42:10;;;;;;;9.43;6.07;;;-0.80;99.90;;;-0.95;89.94;100109.53;5021758;28;20197;-75